Danville, IL (61832)

12:01 PM CDT on August 31, 2015 (GMT -0500)
Vermilionweather.com | | Change Station
CLOSE
Current Station
Personal Weather Station
Location: Danville, IL
Elevation: 627 ft
Nearby Weather Stations

Elev 627 ft 40.17 °N, 87.65 °W | Updated 7 seconds ago

Clear
Clear
83.4 °F
Feels Like 89 °F
N
4.6
Wind Variable Wind from SE
Gusts 5.7 mph

Today
High -- | Low -- °F
--% Chance of Precip.
Yesterday
High -- | Low -- °F
Precip. -- in
6:16 AM 7:24 PM
Waning Gibbous, 94% visible
Pressure 30.08 in
Visibility 5.0 miles
Clouds Mostly Cloudy 2400 ft
Mostly Cloudy 3700 ft
Heat Index 89 °F
Dew Point 72 °F
Humidity 68%
Rainfall 0.00 in
Snow Depth Not available.
UV 5 out of 12
Pollen 10.30 out of 12
Air Quality Not available.
Flu Activity Not available.
METAR KDNV 311655Z AUTO 21004KT 5SM HZ BKN024 BKN037 27/22 A3008 RMK AO2 T02710221
Pressure 30.08 in
Visibility 5.0 miles
Clouds Mostly Cloudy 2400 ft
Mostly Cloudy 3700 ft
Heat Index 89 °F
Dew Point 72 °F
Humidity 68%
Rainfall 0.00 in
Snow Depth Not available.
UV 5 out of 12
Pollen 10.30 out of 12
Air Quality Not available.
Flu Activity Not available.
METAR KDNV 311655Z AUTO 21004KT 5SM HZ BKN024 BKN037 27/22 A3008 RMK AO2 T02710221

10-Day Weather Forecast

×

Almanac

Astronomy

Aug. 31, 2015 Rise Set
Actual Time
Civil Twilight
Nautical Twilight
Astronomical Twilight
Moon
Length of Visible Light
Length of Day
Tomorrow will be .
, % of the Moon is Illuminated

Today's Extremes

State Highs State Lows

Community

WunderPhotos

Upload Photos

1,851,320 photos uploaded!

WunderBlogs® & News

Nearby

Air Quality

  Air Quality AQ Index Pollutant
Not available.

Snow Depth

Station Depth Elevation

Earthquake Activity

City Distance Mag. Time & Date
Minimum magnitude displayed is 2.5.

Coastal Water Temperatures

Place Temperature

Stations

Nearby Weather Stations

Station Location Temp. Windchill Dew Point Humidity Wind Precip. Elev Updated Type